Time;durP1;ratioP1;P1;durP2;ratioP2;P2;SDS_P1;SDS_P2;PMS_P1;PMS_P2;Temp;Humidity;BMP_temperature;BMP_pressure;BME280_temperature;BME280_humidity;BME280_pressure;Samples;Min_cycle;Max_cycle;Signal;HPM_P1;HPM_P2
2022/07/19 00:02:07;;;;;;;1.33;0.40;;;;;;;29.96;33.37;101018.97;4992273;28;20537;-74
2022/07/19 00:04:34;;;;;;;1.33;0.40;;;;;;;29.96;33.39;101027.03;4994300;28;20378;-74
2022/07/19 00:07:00;;;;;;;0.88;0.30;;;;;;;29.95;33.25;101019.25;5003721;28;20034;-74
2022/07/19 00:09:26;;;;;;;1.98;0.30;;;;;;;29.95;33.32;101013.88;5011737;28;20033;-74
2022/07/19 00:11:52;;;;;;;1.00;0.30;;;;;;;29.94;33.33;101015.75;5009872;28;20034;-74
2022/07/19 00:14:17;;;;;;;1.67;0.30;;;;;;;29.94;33.31;101017.63;5012252;28;20037;-74
2022/07/19 00:16:43;;;;;;;0.35;0.20;;;;;;;29.93;33.80;101016.81;5010121;28;20462;-74
2022/07/19 00:19:08;;;;;;;1.65;0.30;;;;;;;29.91;33.52;101021.63;5007967;28;20488;-75
2022/07/19 00:21:33;;;;;;;1.50;0.20;;;;;;;29.89;33.87;101018.41;5011863;28;20458;-75
2022/07/19 00:24:00;;;;;;;1.23;0.35;;;;;;;29.90;33.78;101014.66;5009650;28;20045;-75
2022/07/19 00:26:29;;;;;;;0.88;0.30;;;;;;;29.89;33.35;101015.72;5010469;28;20114;-75
2022/07/19 00:28:56;;;;;;;1.00;0.30;;;;;;;29.90;33.66;101016.53;5010960;28;20038;-75
2022/07/19 00:31:22;;;;;;;0.73;0.30;;;;;;;29.89;33.72;101021.09;5008185;28;20036;-75
2022/07/19 00:33:48;;;;;;;0.60;0.30;;;;;;;29.89;33.68;101018.41;5005785;28;20384;-75
2022/07/19 00:36:13;;;;;;;1.30;0.30;;;;;;;29.89;33.27;101017.59;4991957;28;20076;-75
2022/07/19 00:38:38;;;;;;;2.75;0.30;;;;;;;29.89;33.31;101021.09;4999496;28;20361;-75
2022/07/19 00:41:04;;;;;;;1.60;0.30;;;;;;;29.88;33.65;101022.16;5011138;28;20026;-75
2022/07/19 00:43:30;;;;;;;0.80;0.45;;;;;;;29.89;33.71;101028.34;5010416;28;20029;-75
2022/07/19 00:45:55;;;;;;;1.52;0.50;;;;;;;29.89;33.45;101023.78;5008925;28;20060;-75
2022/07/19 00:48:22;;;;;;;0.85;0.30;;;;;;;29.88;33.34;101016.78;5009044;28;20048;-75
2022/07/19 00:50:47;;;;;;;0.95;0.30;;;;;;;29.88;33.67;101016.78;4991762;28;20351;-76
2022/07/19 00:53:14;;;;;;;0.70;0.30;;;;;;;29.88;33.62;101016.78;4995215;28;20040;-75
2022/07/19 00:55:43;;;;;;;0.63;0.30;;;;;;;29.88;33.31;101016.78;5010110;28;20425;-74
2022/07/19 00:58:11;;;;;;;1.13;0.20;;;;;;;29.89;33.62;101020.28;5009063;28;20050;-74
2022/07/19 01:00:38;;;;;;;0.60;0.30;;;;;;;29.89;33.59;101022.97;5009043;28;20222;-75
2022/07/19 01:03:07;;;;;;;1.00;0.40;;;;;;;29.87;33.41;101020.53;5008387;28;20026;-75
2022/07/19 01:05:33;;;;;;;2.25;0.30;;;;;;;29.86;33.69;101016.22;5007521;28;20065;-75
2022/07/19 01:07:58;;;;;;;1.75;0.30;;;;;;;29.86;33.66;101015.41;5006283;28;20076;-74
2022/07/19 01:10:24;;;;;;;1.15;0.30;;;;;;;29.86;33.82;101016.22;5010728;28;20109;-75
2022/07/19 01:12:50;;;;;;;1.55;0.30;;;;;;;29.86;33.39;101016.22;5007812;28;20449;-75
2022/07/19 01:15:19;;;;;;;1.98;0.30;;;;;;;29.87;33.89;101019.72;5009745;28;20026;-75
2022/07/19 01:17:45;;;;;;;0.70;0.30;;;;;;;29.84;33.36;101010.31;5007623;28;20448;-74
2022/07/19 01:20:10;;;;;;;0.50;0.20;;;;;;;29.85;33.83;101019.19;4998140;28;20481;-74
2022/07/19 01:22:36;;;;;;;0.85;0.30;;;;;;;29.83;33.75;101008.69;4999058;28;20029;-75
2022/07/19 01:25:02;;;;;;;2.58;0.20;;;;;;;29.82;33.80;101020.50;5010447;28;20081;-75
2022/07/19 01:27:27;;;;;;;1.33;0.30;;;;;;;29.82;33.49;101015.13;5007140;28;20022;-75
2022/07/19 01:29:53;;;;;;;0.60;0.30;;;;;;;29.82;33.57;101015.13;5008702;28;20022;-75
2022/07/19 01:32:18;;;;;;;2.67;0.47;;;;;;;29.81;33.76;101008.13;5008330;28;20112;-75
2022/07/19 01:34:44;;;;;;;2.08;0.28;;;;;;;29.82;33.81;101014.31;5008027;28;20458;-75
2022/07/19 01:37:09;;;;;;;1.67;0.30;;;;;;;29.81;33.57;101010.81;5009335;28;20347;-75
2022/07/19 01:39:34;;;;;;;0.95;0.30;;;;;;;29.80;33.81;101006.53;5008492;28;20520;-75
2022/07/19 01:42:00;;;;;;;0.65;0.30;;;;;;;29.80;33.37;101011.88;5008780;28;20061;-75
2022/07/19 01:44:25;;;;;;;0.60;0.30;;;;;;;29.80;33.61;101006.53;5008813;28;20033;-75
2022/07/19 01:46:51;;;;;;;0.80;0.30;;;;;;;29.78;33.52;101005.97;5004369;28;20025;-75
2022/07/19 01:49:16;;;;;;;0.70;0.30;;;;;;;29.78;33.57;101000.59;5007148;28;20409;-75
2022/07/19 01:51:41;;;;;;;1.73;0.38;;;;;;;29.79;33.80;101009.47;4992073;28;20272;-75
2022/07/19 01:54:07;;;;;;;1.73;0.50;;;;;;;29.78;33.47;101005.16;5008062;28;20022;-74
2022/07/19 01:56:32;;;;;;;1.90;0.47;;;;;;;29.77;33.69;100998.19;5008905;28;20034;-75
2022/07/19 01:58:58;;;;;;;0.68;0.25;;;;;;;29.76;33.74;100997.38;5009643;28;20034;-75
2022/07/19 02:01:23;;;;;;;1.02;0.30;;;;;;;29.77;33.39;100990.16;5007901;28;20033;-75
2022/07/19 02:03:49;;;;;;;1.63;0.30;;;;;;;29.77;33.34;100993.63;5008040;28;20021;-75
2022/07/19 02:06:14;;;;;;;0.70;0.38;;;;;;;29.76;33.50;100999.28;5004949;28;20466;-76
2022/07/19 02:08:40;;;;;;;0.80;0.28;;;;;;;29.76;33.48;100996.59;5007955;28;20044;-75
2022/07/19 02:13:50;;;;;;;0.88;0.30;;;;;;;29.73;33.34;101000.59;5009214;28;20087;-75
2022/07/19 02:16:16;;;;;;;2.25;0.40;;;;;;;29.74;33.13;100996.03;5006985;28;20120;-75
2022/07/19 02:18:41;;;;;;;0.88;0.22;;;;;;;29.74;33.09;101002.22;5007555;28;20553;-75
2022/07/19 02:21:06;;;;;;;2.33;0.28;;;;;;;29.73;33.38;101000.59;4997000;28;20493;-74
2022/07/19 02:23:32;;;;;;;1.88;0.30;;;;;;;29.74;33.38;101002.22;5008548;28;20472;-74
2022/07/19 02:25:57;;;;;;;1.50;0.20;;;;;;;29.74;33.48;101007.59;5009090;28;20026;-74
2022/07/19 02:28:23;;;;;;;0.82;0.20;;;;;;;29.74;33.37;100996.84;5005495;28;20037;-74
2022/07/19 02:30:48;;;;;;;1.75;0.20;;;;;;;29.73;33.33;101000.59;5006230;28;20481;-74
2022/07/19 02:33:13;;;;;;;0.82;0.30;;;;;;;29.73;33.42;101005.16;5007093;28;20025;-74
2022/07/19 02:35:39;;;;;;;2.05;0.22;;;;;;;29.71;33.36;101000.03;5001656;28;20026;-74
2022/07/19 02:38:05;;;;;;;0.55;0.30;;;;;;;29.72;33.38;101004.34;4989383;28;20080;-74
2022/07/19 02:40:30;;;;;;;1.67;0.30;;;;;;;29.72;33.42;100998.97;4998040;28;20091;-75
2022/07/19 02:42:55;;;;;;;0.82;0.30;;;;;;;29.70;33.36;100998.41;5007665;28;20046;-74
2022/07/19 02:45:21;;;;;;;0.40;0.20;;;;;;;29.70;33.41;101001.09;5005206;28;20062;-75
2022/07/19 02:47:47;;;;;;;1.17;0.20;;;;;;;29.70;33.28;101001.09;5004737;28;20056;-74
2022/07/19 02:50:12;;;;;;;0.70;0.20;;;;;;;29.68;33.41;100998.69;5006527;28;20139;-75
2022/07/19 02:52:38;;;;;;;1.75;0.30;;;;;;;29.68;33.03;101004.06;4989667;28;20062;-74
2022/07/19 02:55:04;;;;;;;0.63;0.20;;;;;;;29.67;33.51;101007.00;5001872;28;20024;-75
2022/07/19 02:57:30;;;;;;;2.92;0.30;;;;;;;29.66;33.38;101005.38;5007872;28;20044;-74
2022/07/19 02:59:55;;;;;;;3.25;0.30;;;;;;;29.66;33.07;101008.88;5006477;28;20038;-74
2022/07/19 03:02:21;;;;;;;1.20;0.30;;;;;;;29.66;33.64;101008.06;5007547;28;20401;-75
2022/07/19 03:04:46;;;;;;;2.35;0.40;;;;;;;29.67;33.09;101009.69;5006202;28;20026;-75
2022/07/19 03:07:11;;;;;;;3.10;0.40;;;;;;;29.65;33.32;101007.25;4993742;28;20034;-74
2022/07/19 03:09:37;;;;;;;0.65;0.30;;;;;;;29.65;33.03;101015.31;4982299;28;20408;-74
2022/07/19 03:12:03;;;;;;;0.73;0.30;;;;;;;29.65;32.88;101017.19;5006427;28;20029;-75
2022/07/19 03:14:28;;;;;;;1.20;0.30;;;;;;;29.65;32.96;101014.50;5008249;28;20033;-74
2022/07/19 03:16:54;;;;;;;2.25;0.30;;;;;;;29.65;32.88;101011.81;5007291;28;20376;-74
2022/07/19 03:19:19;;;;;;;2.90;0.30;;;;;;;29.65;33.21;101011.81;5006293;28;20112;-74
2022/07/19 03:21:45;;;;;;;0.80;0.30;;;;;;;29.66;32.94;101016.13;5004336;28;20117;-75
2022/07/19 03:24:10;;;;;;;1.92;0.20;;;;;;;29.66;33.10;101013.44;5007553;28;20061;-74
2022/07/19 03:26:35;;;;;;;0.90;0.30;;;;;;;29.66;33.29;101016.13;5005687;28;20029;-75
2022/07/19 03:29:01;;;;;;;0.65;0.30;;;;;;;29.65;33.39;101017.19;5007266;28;20022;-74
2022/07/19 03:31:26;;;;;;;3.45;0.30;;;;;;;29.65;33.06;101022.56;5005493;28;20393;-75
2022/07/19 03:33:52;;;;;;;0.93;0.25;;;;;;;29.65;32.96;101022.56;5007271;28;20386;-74
2022/07/19 03:36:17;;;;;;;1.05;0.40;;;;;;;29.64;33.25;101020.94;5001843;28;20406;-74
2022/07/19 03:38:43;;;;;;;0.70;0.30;;;;;;;29.64;32.80;101018.25;4999197;28;20039;-75
2022/07/19 03:41:08;;;;;;;1.98;0.30;;;;;;;29.63;32.70;101016.63;5010851;28;20045;-75
2022/07/19 03:43:33;;;;;;;4.70;0.30;;;;;;;29.62;33.25;101021.19;5011517;28;20037;-75
2022/07/19 03:45:59;;;;;;;1.05;0.40;;;;;;;29.61;33.12;101024.13;5006175;28;20116;-74
2022/07/19 03:48:24;;;;;;;1.05;0.30;;;;;;;29.60;32.86;101026.00;5013017;28;20428;-74
2022/07/19 03:50:50;;;;;;;2.25;0.22;;;;;;;29.59;32.67;101021.69;5010723;28;20033;-75
2022/07/19 03:53:15;;;;;;;1.23;0.28;;;;;;;29.58;32.74;101019.28;5011557;28;20457;-75
2022/07/19 03:55:40;;;;;;;1.85;0.20;;;;;;;29.57;32.88;101028.38;5012269;28;20620;-74
2022/07/19 03:58:06;;;;;;;1.45;0.30;;;;;;;29.57;32.56;101021.16;5009849;28;20079;-74
2022/07/19 04:00:31;;;;;;;0.60;0.20;;;;;;;29.57;32.99;101028.38;5011696;28;20087;-74
2022/07/19 04:02:57;;;;;;;1.42;0.40;;;;;;;29.56;32.72;101029.47;5015099;28;20018;-74
2022/07/19 04:05:23;;;;;;;1.45;0.30;;;;;;;29.56;33.05;101029.47;5012546;28;20029;-74
2022/07/19 04:07:48;;;;;;;0.80;0.22;;;;;;;29.54;32.75;101029.72;5013270;28;20026;-74
2022/07/19 04:10:14;;;;;;;1.92;0.30;;;;;;;29.54;33.08;101028.91;5009994;28;20030;-74
2022/07/19 04:12:39;;;;;;;4.45;0.30;;;;;;;29.52;33.11;101025.66;4993944;28;20433;-74
2022/07/19 04:15:06;;;;;;;2.67;0.30;;;;;;;29.53;33.04;101028.09;5012523;28;20064;-74
2022/07/19 04:17:31;;;;;;;1.23;0.30;;;;;;;29.55;32.70;101035.88;5013364;28;20470;-74
2022/07/19 04:19:57;;;;;;;3.95;0.50;;;;;;;29.55;33.10;101031.34;5011457;28;20033;-74
2022/07/19 04:22:23;;;;;;;1.45;0.30;;;;;;;29.56;32.54;101037.50;5005064;28;20042;-74
2022/07/19 04:24:49;;;;;;;2.88;0.30;;;;;;;29.56;32.99;101043.69;4994994;28;20129;-74
2022/07/19 04:27:15;;;;;;;1.30;0.40;;;;;;;29.58;32.69;101038.06;5003127;28;20034;-74
2022/07/19 04:29:40;;;;;;;1.73;0.30;;;;;;;29.57;32.82;101028.38;5011310;28;20199;-74
2022/07/19 04:32:06;;;;;;;1.25;0.40;;;;;;;29.59;32.75;101034.31;5013181;28;20034;-74
2022/07/19 04:34:32;;;;;;;2.80;0.45;;;;;;;29.59;32.79;101034.31;5011228;28;21232;-74
2022/07/19 04:36:57;;;;;;;1.65;0.40;;;;;;;29.59;32.87;101040.50;5011673;28;20096;-74
2022/07/19 04:39:22;;;;;;;2.00;0.43;;;;;;;29.59;33.15;101037.81;4994093;28;20034;-74
2022/07/19 04:41:48;;;;;;;0.82;0.30;;;;;;;29.59;33.24;101031.63;5012632;28;20125;-74
2022/07/19 04:44:13;;;;;;;2.50;0.30;;;;;;;29.59;33.11;101039.69;5013146;28;20033;-74
2022/07/19 04:46:39;;;;;;;1.80;0.35;;;;;;;29.58;33.13;101030.00;5013155;28;20038;-74
2022/07/19 04:49:04;;;;;;;1.48;0.40;;;;;;;29.58;33.25;101035.38;5012147;28;20429;-74
2022/07/19 04:51:29;;;;;;;2.25;0.30;;;;;;;29.58;33.18;101032.69;5012324;28;20029;-74
2022/07/19 04:53:55;;;;;;;2.08;0.20;;;;;;;29.58;32.85;101035.38;5008399;28;20022;-75
2022/07/19 04:56:20;;;;;;;2.42;0.50;;;;;;;29.58;33.32;101032.69;5008747;28;20533;-74
2022/07/19 04:58:46;;;;;;;0.75;0.20;;;;;;;29.59;33.41;101037.00;5009705;28;20034;-74
2022/07/19 05:01:11;;;;;;;2.10;0.43;;;;;;;29.58;33.06;101036.19;5000716;28;20042;-74
2022/07/19 05:03:36;;;;;;;0.50;0.30;;;;;;;29.60;33.57;101038.63;5001735;28;20442;-74
2022/07/19 05:06:02;;;;;;;2.38;0.40;;;;;;;29.60;33.16;101041.31;5008156;28;20029;-74
2022/07/19 05:08:27;;;;;;;2.38;0.30;;;;;;;29.61;33.59;101040.25;5000802;28;20070;-74
2022/07/19 05:10:53;;;;;;;2.65;0.38;;;;;;;29.61;33.46;101042.91;4998234;28;20034;-74
2022/07/19 05:13:18;;;;;;;2.80;0.40;;;;;;;29.62;33.27;101048.03;5008524;28;20053;-74
2022/07/19 05:15:44;;;;;;;1.00;0.30;;;;;;;29.62;33.71;101045.34;5009593;28;20101;-74
2022/07/19 05:18:09;;;;;;;1.48;0.30;;;;;;;29.64;33.50;101051.28;5010359;28;20061;-74
2022/07/19 05:20:35;;;;;;;1.27;0.40;;;;;;;29.63;33.65;101043.47;5005104;28;20129;-74
2022/07/19 05:23:00;;;;;;;4.00;0.40;;;;;;;29.64;33.83;101047.78;5004951;28;20128;-74
2022/07/19 05:25:25;;;;;;;1.48;0.40;;;;;;;29.65;33.57;101046.72;4991033;28;20417;-73
2022/07/19 05:27:51;;;;;;;2.30;0.40;;;;;;;29.65;33.57;101044.84;5006181;28;20421;-74
2022/07/19 05:30:16;;;;;;;1.25;0.40;;;;;;;29.68;33.38;101046.19;5009298;28;20040;-74
2022/07/19 05:32:42;;;;;;;3.22;0.40;;;;;;;29.67;33.34;101041.91;5012833;28;20030;-74
2022/07/19 05:35:08;;;;;;;2.17;0.32;;;;;;;29.67;33.95;101042.72;5008331;28;20394;-74
2022/07/19 05:37:33;;;;;;;1.90;0.60;;;;;;;29.68;33.44;101043.53;5008375;28;20045;-74
2022/07/19 05:39:59;;;;;;;1.60;0.40;;;;;;;29.67;33.37;101045.41;5000086;28;20083;-74
2022/07/19 05:42:25;;;;;;;3.50;0.35;;;;;;;29.67;33.42;101045.41;5008669;28;20525;-74
2022/07/19 05:44:51;;;;;;;2.35;0.30;;;;;;;29.67;33.63;101039.22;5009007;28;20532;-74
2022/07/19 05:47:17;;;;;;;1.33;0.32;;;;;;;29.68;33.02;101041.63;4996160;28;20029;-74
2022/07/19 05:49:43;;;;;;;2.85;0.75;;;;;;;29.67;33.13;101045.41;4998045;28;20041;-73
2022/07/19 05:52:08;;;;;;;1.48;0.20;;;;;;;29.66;32.99;101042.97;5008245;28;20042;-74
2022/07/19 05:54:34;;;;;;;2.45;0.25;;;;;;;29.65;32.13;101033.28;5006599;28;20026;-74
2022/07/19 05:56:59;;;;;;;2.40;0.30;;;;;;;29.65;32.57;101038.66;5008469;28;20102;-74
2022/07/19 05:59:24;;;;;;;1.95;0.30;;;;;;;29.65;32.42;101038.66;5009072;28;20034;-74
2022/07/19 06:01:50;;;;;;;1.75;0.35;;;;;;;29.64;31.91;101039.72;5006148;28;20032;-74
2022/07/19 06:04:16;;;;;;;1.95;0.20;;;;;;;29.64;31.86;101042.41;5008503;28;20030;-74
2022/07/19 06:06:41;;;;;;;3.03;0.50;;;;;;;29.64;31.89;101040.53;5005323;28;20165;-74
2022/07/19 06:09:11;;;;;;;0.98;0.20;;;;;;;29.64;32.43;101039.72;5008544;28;20040;-74
2022/07/19 06:11:40;;;;;;;2.95;0.40;;;;;;;29.66;32.33;101040.28;5007623;28;20026;-74
2022/07/19 06:14:08;;;;;;;1.58;0.30;;;;;;;29.65;32.28;101041.34;4994239;28;20038;-74
2022/07/19 06:16:34;;;;;;;1.08;0.20;;;;;;;29.65;32.11;101039.47;4998932;28;20520;-75
2022/07/19 06:19:00;;;;;;;1.17;0.22;;;;;;;29.66;32.19;101045.66;5013805;28;20121;-73
2022/07/19 06:21:25;;;;;;;3.92;0.30;;;;;;;29.66;31.73;101042.97;4989192;28;20124;-74
2022/07/19 06:23:50;;;;;;;3.03;0.32;;;;;;;29.65;31.82;101035.97;5008705;28;20426;-74
2022/07/19 06:26:16;;;;;;;3.75;0.45;;;;;;;29.66;31.80;101041.09;5003500;28;20132;-75
2022/07/19 06:28:42;;;;;;;2.20;0.38;;;;;;;29.67;31.64;101034.66;5005896;28;20033;-75
2022/07/19 06:31:09;;;;;;;3.65;0.30;;;;;;;29.69;32.03;101042.44;5008069;28;20038;-75
2022/07/19 06:33:35;;;;;;;4.40;0.30;;;;;;;29.69;32.58;101037.88;5007261;28;20037;-75
2022/07/19 06:36:01;;;;;;;2.60;0.30;;;;;;;29.70;32.97;101036.81;5007052;28;20117;-74
2022/07/19 06:38:26;;;;;;;3.15;0.30;;;;;;;29.73;33.33;101029.31;5006913;28;20465;-74
2022/07/19 06:40:52;;;;;;;2.97;0.30;;;;;;;29.75;33.61;101033.38;5009299;28;20096;-76
2022/07/19 06:43:17;;;;;;;2.28;0.40;;;;;;;29.75;33.35;101032.56;5007793;28;20049;-73
2022/07/19 06:45:43;;;;;;;4.40;0.65;;;;;;;29.73;33.11;101032.00;5004731;28;20025;-74
2022/07/19 06:48:08;;;;;;;10.95;0.68;;;;;;;29.71;32.82;101037.63;5002938;28;20060;-75
2022/07/19 06:50:34;;;;;;;3.25;0.47;;;;;;;29.66;33.10;101034.91;5005690;28;20038;-75
2022/07/19 06:52:59;;;;;;;1.52;0.40;;;;;;;29.63;32.91;101032.72;5004254;28;20033;-75
2022/07/19 06:55:25;;;;;;;3.65;0.38;;;;;;;29.62;32.99;101026.56;5006651;28;20512;-73
2022/07/19 06:57:50;;;;;;;1.60;0.38;;;;;;;29.63;32.32;101028.19;5006522;28;20033;-76
2022/07/19 07:00:16;;;;;;;1.67;0.20;;;;;;;29.63;31.96;101033.53;5008530;28;20034;-73
2022/07/19 07:02:42;;;;;;;5.03;0.30;;;;;;;29.63;32.66;101033.53;5016431;28;20496;-76
2022/07/19 07:05:08;;;;;;;2.03;0.40;;;;;;;29.65;32.52;101019.88;5005176;28;20395;-75
2022/07/19 07:07:34;;;;;;;1.13;0.28;;;;;;;29.64;32.30;101018.25;5006761;28;20034;-75
2022/07/19 07:10:01;;;;;;;1.75;0.40;;;;;;;29.64;32.05;101015.56;5005601;28;20026;-74
2022/07/19 07:12:27;;;;;;;5.47;0.40;;;;;;;29.65;32.51;101022.56;4999348;28;20378;-74
2022/07/19 07:14:56;;;;;;;3.55;0.40;;;;;;;29.65;33.04;101017.19;5005562;28;20033;-74
2022/07/19 07:17:21;;;;;;;3.92;0.50;;;;;;;29.63;33.12;101012.06;4994694;28;20056;-74
2022/07/19 07:19:47;;;;;;;1.08;0.30;;;;;;;29.63;32.60;101016.63;5007385;28;20026;-73
2022/07/19 07:22:12;;;;;;;2.50;0.30;;;;;;;29.63;31.69;101013.94;5007649;28;20037;-73
2022/07/19 07:24:38;;;;;;;1.45;0.30;;;;;;;29.63;31.50;101016.63;5008496;28;20029;-75
2022/07/19 07:27:04;;;;;;;2.25;0.30;;;;;;;29.61;31.28;101010.69;5007371;28;20044;-73
2022/07/19 07:29:29;;;;;;;4.28;0.40;;;;;;;29.60;31.26;101011.78;5005218;28;20030;-71
2022/07/19 07:31:55;;;;;;;3.83;0.30;;;;;;;29.60;30.92;101007.22;5005724;28;20499;-76
2022/07/19 07:34:20;;;;;;;1.55;0.20;;;;;;;29.60;30.32;101006.41;5005318;28;20069;-75
2022/07/19 07:36:46;;;;;;;1.05;0.20;;;;;;;29.60;29.83;101009.91;4998354;28;20431;-74
2022/07/19 07:39:12;;;;;;;1.70;0.30;;;;;;;29.60;29.46;101007.22;5006590;28;20080;-73
2022/07/19 07:41:37;;;;;;;2.20;0.20;;;;;;;29.61;29.49;101013.38;4998525;28;20056;-74
2022/07/19 07:44:03;;;;;;;1.85;0.30;;;;;;;29.61;29.56;101010.69;5010459;28;20106;-73
2022/07/19 07:46:29;;;;;;;4.07;0.40;;;;;;;29.63;29.86;101016.63;5004826;28;20061;-77
2022/07/19 07:48:55;;;;;;;0.80;0.30;;;;;;;29.63;30.09;101024.69;5000790;28;20057;-74
2022/07/19 07:51:21;;;;;;;1.48;0.30;;;;;;;29.63;30.19;101011.25;5002565;28;20030;-73
2022/07/19 07:53:47;;;;;;;1.92;0.30;;;;;;;29.61;30.43;101003.47;5007794;28;20076;-76
2022/07/19 07:56:12;;;;;;;4.25;0.30;;;;;;;29.63;30.60;101005.88;5006902;28;20026;-76
2022/07/19 07:58:37;;;;;;;6.97;0.68;;;;;;;29.64;30.21;101007.50;5006840;28;20109;-75
2022/07/19 08:01:03;;;;;;;1.50;0.30;;;;;;;29.64;30.29;101002.13;5004108;28;20030;-75
2022/07/19 08:03:29;;;;;;;1.25;0.30;;;;;;;29.64;30.19;100997.56;5004381;28;20072;-75
2022/07/19 08:05:57;;;;;;;2.55;0.35;;;;;;;29.66;29.98;100994.63;5005710;28;20546;-73
2022/07/19 08:08:26;;;;;;;2.97;0.30;;;;;;;29.66;29.73;100995.44;4998743;28;20064;-76
2022/07/19 08:10:52;;;;;;;6.03;0.60;;;;;;;29.67;29.70;100998.94;5006841;28;20096;-76
2022/07/19 08:13:18;;;;;;;6.65;0.50;;;;;;;29.69;29.49;100994.94;5002902;28;20026;-74
2022/07/19 08:15:43;;;;;;;2.05;0.20;;;;;;;29.68;29.30;100987.94;5007155;28;20034;-75
2022/07/19 08:18:08;;;;;;;1.10;0.30;;;;;;;29.67;29.18;100991.69;4998508;28;20041;-72
2022/07/19 08:20:34;;;;;;;2.10;0.25;;;;;;;29.68;29.11;100989.81;5005691;28;20037;-77
2022/07/19 08:22:59;;;;;;;0.88;0.20;;;;;;;29.68;28.79;100989.81;5003416;28;20113;-74
2022/07/19 08:25:25;;;;;;;1.52;0.20;;;;;;;29.69;28.84;100988.75;5000186;28;20029;-75
2022/07/19 08:27:50;;;;;;;1.88;0.40;;;;;;;29.68;28.62;100985.25;5007364;28;20413;-75
2022/07/19 08:30:16;;;;;;;1.95;0.22;;;;;;;29.68;28.67;100981.75;5006203;28;20037;-75
2022/07/19 08:32:42;;;;;;;0.52;0.30;;;;;;;29.68;28.74;100976.38;5009990;28;20033;-72
2022/07/19 08:35:08;;;;;;;2.78;0.20;;;;;;;29.69;29.13;100983.38;5005140;28;20030;-73
2022/07/19 08:37:34;;;;;;;1.92;0.30;;;;;;;29.70;28.84;100985.00;5008940;28;20038;-73
2022/07/19 08:40:00;;;;;;;2.50;0.30;;;;;;;29.69;29.34;100983.38;5006673;28;20088;-75
2022/07/19 08:42:26;;;;;;;1.02;0.30;;;;;;;29.69;28.74;100981.50;4994798;28;20498;-72
2022/07/19 08:44:53;;;;;;;2.95;0.30;;;;;;;29.71;28.44;100981.25;4997953;28;20056;-74
2022/07/19 08:47:19;;;;;;;3.65;0.30;;;;;;;29.70;28.93;100976.94;5005250;28;20440;-73
2022/07/19 08:49:45;;;;;;;0.68;0.28;;;;;;;29.70;28.39;100979.63;5005035;28;20029;-75
2022/07/19 08:52:11;;;;;;;2.72;0.20;;;;;;;29.69;28.99;100973.44;5007094;28;20034;-74
2022/07/19 08:54:38;;;;;;;1.30;0.30;;;;;;;29.69;28.51;100978.00;4998766;28;20082;-75
2022/07/19 08:59:47;;;;;;;2.38;0.40;;;;;;;29.72;28.37;100980.19;5002521;28;20401;-75
2022/07/19 09:02:13;;;;;;;1.88;0.40;;;;;;;29.73;28.31;100976.44;5009742;28;20116;-74
2022/07/19 09:04:38;;;;;;;1.95;0.38;;;;;;;29.76;28.45;100978.59;5007735;28;20575;-77
2022/07/19 09:07:04;;;;;;;1.52;0.30;;;;;;;29.75;28.45;100971.59;4995922;28;20082;-76
2022/07/19 09:09:36;;;;;;;1.05;0.32;;;;;;;29.75;28.37;100971.59;5008636;28;20308;-73
2022/07/19 09:12:04;;;;;;;2.60;0.30;;;;;;;29.77;28.12;100974.84;5005338;28;20435;-74
2022/07/19 09:14:35;;;;;;;1.00;0.25;;;;;;;29.76;28.36;100962.47;4999581;28;20034;-77
2022/07/19 09:17:06;;;;;;;1.90;0.30;;;;;;;29.76;28.13;100961.66;5002156;28;20033;-75
2022/07/19 09:19:34;;;;;;;3.05;0.30;;;;;;;29.76;27.97;100970.53;5008038;28;20033;-73
2022/07/19 09:22:08;;;;;;;0.70;0.32;;;;;;;29.78;27.39;100964.88;5004525;28;20034;-74
2022/07/19 09:24:36;;;;;;;1.73;0.35;;;;;;;29.80;27.47;100968.13;5008754;28;20030;-76
2022/07/19 09:27:03;;;;;;;1.23;0.60;;;;;;;29.82;27.70;100969.47;5007458;28;20049;-74
2022/07/19 09:29:30;;;;;;;2.50;0.30;;;;;;;29.86;28.03;100965.19;5007631;28;20038;-73
2022/07/19 09:32:17;;;;;;;5.35;0.50;;;;;;;29.87;27.67;100958.75;4997333;28;20506;-72
2022/07/19 09:34:48;;;;;;;0.93;0.28;;;;;;;29.92;27.73;100960.66;5010545;28;20025;-72
2022/07/19 09:37:22;;;;;;;1.23;0.30;;;;;;;29.96;27.06;100957.19;4988751;28;20054;-73
2022/07/19 09:39:50;;;;;;;2.20;0.38;;;;;;;29.96;27.09;100957.19;4998945;28;20068;-76
2022/07/19 09:42:24;;;;;;;0.60;0.22;;;;;;;29.97;26.93;100958.00;5006832;28;20419;-73
2022/07/19 09:45:06;;;;;;;1.95;0.30;;;;;;;30.00;26.83;100961.00;4998789;28;20026;-76
2022/07/19 09:47:34;;;;;;;1.13;0.28;;;;;;;30.05;27.10;100960.22;5007181;28;20049;-73
2022/07/19 09:50:01;;;;;;;1.30;0.22;;;;;;;30.06;27.08;100952.97;5008155;28;20050;-75
2022/07/19 09:52:26;;;;;;;2.15;0.40;;;;;;;30.04;27.34;100954.06;5004619;28;20375;-73
2022/07/19 09:54:53;;;;;;;2.05;0.40;;;;;;;30.08;27.38;100953.53;5002297;28;20034;-76
2022/07/19 09:57:27;;;;;;;1.95;0.38;;;;;;;30.12;27.61;100946.56;4999639;28;20275;-74
2022/07/19 09:59:57;;;;;;;1.10;0.30;;;;;;;30.17;27.45;100949.28;5005326;28;20774;-73
2022/07/19 10:02:23;;;;;;;2.50;0.35;;;;;;;30.21;27.55;100959.22;4993647;28;20048;-74
2022/07/19 10:04:52;;;;;;;2.58;0.28;;;;;;;30.17;27.60;100960.03;5008763;28;20048;-75
2022/07/19 10:07:18;;;;;;;1.10;0.20;;;;;;;30.13;27.53;100945.50;5008509;28;20034;-72
2022/07/19 10:09:45;;;;;;;2.17;0.63;;;;;;;30.10;27.59;100951.38;5009335;28;20462;-75
2022/07/19 10:12:11;;;;;;;0.65;0.30;;;;;;;30.12;27.42;100950.06;5007482;28;20092;-75
2022/07/19 10:14:38;;;;;;;0.70;0.30;;;;;;;30.14;27.84;100947.91;4999353;28;20075;-73
2022/07/19 10:17:14;;;;;;;1.77;0.40;;;;;;;30.19;27.82;100949.81;5005768;28;20038;-73
2022/07/19 10:19:43;;;;;;;2.35;0.30;;;;;;;30.20;27.50;100952.25;5008371;28;20428;-72
2022/07/19 10:22:13;;;;;;;1.60;0.30;;;;;;;30.19;27.67;100952.50;5008503;28;20034;-74
2022/07/19 10:24:44;;;;;;;2.53;0.30;;;;;;;30.18;27.36;100938.25;5005518;28;20097;-73
2022/07/19 10:27:11;;;;;;;1.83;0.20;;;;;;;30.19;27.98;100939.06;5000672;28;20083;-73
2022/07/19 10:29:36;;;;;;;1.60;0.50;;;;;;;30.19;27.80;100941.75;5006142;28;20080;-72
2022/07/19 10:32:08;;;;;;;4.68;0.50;;;;;;;30.20;28.04;100930.75;5006250;28;20449;-77
2022/07/19 10:34:33;;;;;;;119.57;69.20;;;;;;;30.32;29.96;100943.94;5007440;28;20065;-76
2022/07/19 10:36:59;;;;;;;52.70;39.72;;;;;;;30.45;29.63;100939.94;5006455;28;20119;-73
2022/07/19 10:39:27;;;;;;;914.90;659.50;;;;;;;30.54;30.86;100941.84;5005102;28;20042;-75
2022/07/19 10:42:21;;;;;;;219.55;162.95;;;;;;;30.61;30.53;100942.44;5004053;28;20044;-76
2022/07/19 10:44:56;;;;;;;24.13;16.75;;;;;;;30.57;29.53;100938.66;5009290;28;20065;-73
2022/07/19 10:47:37;;;;;;;11.80;3.75;;;;;;;30.55;29.17;100931.91;5006113;28;20053;-73
2022/07/19 10:50:09;;;;;;;2.00;0.50;;;;;;;30.55;28.34;100929.22;4992926;28;20057;-73
2022/07/19 10:52:37;;;;;;;4.15;0.30;;;;;;;30.55;27.96;100930.03;5004171;28;20045;-74
2022/07/19 10:55:18;;;;;;;4.05;0.50;;;;;;;30.52;28.77;100927.88;5006517;28;20116;-72
2022/07/19 10:58:06;;;;;;;2.95;0.30;;;;;;;30.55;29.16;100923.84;5003441;28;20546;-72
2022/07/19 11:00:47;;;;;;;1.13;0.40;;;;;;;30.59;28.88;100922.28;4994903;28;20418;-75
2022/07/19 11:03:25;;;;;;;2.20;0.40;;;;;;;30.64;28.55;100919.59;5007719;28;20034;-74
2022/07/19 11:05:54;;;;;;;1.23;0.30;;;;;;;30.93;29.02;100919.88;5003748;28;20040;-73
2022/07/19 11:08:37;;;;;;;1.65;0.50;;;;;;;31.54;29.13;100920.66;5004837;28;20132;-74
2022/07/19 11:11:14;;;;;;;5.15;0.30;;;;;;;31.84;32.42;100909.00;5005484;28;20036;-75
2022/07/19 11:13:43;;;;;;;3.80;0.40;;;;;;;32.22;33.48;100896.72;5004726;28;20026;-76
2022/07/19 11:16:09;;;;;;;1.70;0.45;;;;;;;32.43;34.83;100902.81;5005520;28;20033;-74
2022/07/19 11:18:34;;;;;;;5.05;0.55;;;;;;;32.46;34.83;100898.75;5004080;28;20042;-72
2022/07/19 11:21:02;;;;;;;2.78;0.30;;;;;;;32.53;34.89;100900.03;5002800;28;20030;-73
2022/07/19 11:23:30;;;;;;;1.95;0.50;;;;;;;32.75;34.87;100907.72;5001804;28;21411;-76
2022/07/19 11:26:10;;;;;;;3.13;0.32;;;;;;;32.70;30.31;100907.72;4998728;28;20029;-73
2022/07/19 11:28:38;;;;;;;1.40;0.38;;;;;;;32.33;28.91;100892.06;4999855;28;20062;-76